createdAt,value
2023-03-15T00:07:43.496Z,87476.00
2023-03-15T00:09:43.425Z,87480.00
2023-03-15T00:10:43.397Z,87482.00
2023-03-15T00:11:43.369Z,87486.00
2023-03-15T00:12:43.330Z,87490.00
2023-03-15T00:13:43.302Z,87492.00
2023-03-15T00:14:43.276Z,87488.00
2023-03-15T00:15:43.238Z,87488.00
2023-03-15T00:16:43.245Z,87486.00
2023-03-15T00:17:43.273Z,87482.00
2023-03-15T00:18:43.246Z,87484.00
2023-03-15T00:19:43.074Z,87476.00
2023-03-15T00:20:43.056Z,87480.00
2023-03-15T00:21:43.005Z,87482.00
2023-03-15T00:22:43.062Z,87480.00
2023-03-15T00:23:42.986Z,87480.00
2023-03-15T00:24:43.036Z,87478.00
2023-03-15T00:25:42.848Z,87476.00
2023-03-15T00:26:42.838Z,87476.00
2023-03-15T00:27:42.780Z,87480.00
2023-03-15T00:28:42.768Z,87478.00
2023-03-15T00:29:42.724Z,87486.00
2023-03-15T00:30:42.656Z,87488.00
2023-03-15T00:31:42.624Z,87488.00
2023-03-15T00:32:42.637Z,87488.00
2023-03-15T00:33:42.544Z,87490.00
2023-03-15T00:34:42.516Z,87490.00
2023-03-15T00:35:42.502Z,87490.00
2023-03-15T00:36:42.429Z,87488.00
2023-03-15T00:37:42.384Z,87484.00
2023-03-15T00:38:42.352Z,87482.00
2023-03-15T00:39:42.318Z,87480.00
2023-03-15T00:40:42.309Z,87476.00
2023-03-15T00:41:42.224Z,87476.00
2023-03-15T00:42:42.195Z,87472.00
2023-03-15T00:43:42.158Z,87467.00
2023-03-15T00:44:42.231Z,87463.00
2023-03-15T00:45:42.092Z,87461.00
2023-03-15T00:46:42.099Z,87457.00
2023-03-15T00:47:42.011Z,87455.00
2023-03-15T00:48:41.998Z,87455.00
2023-03-15T00:49:41.943Z,87455.00
2023-03-15T00:50:41.908Z,87453.00
2023-03-15T00:51:41.865Z,87453.00
2023-03-15T00:52:41.828Z,87451.00
2023-03-15T00:53:41.791Z,87447.00
2023-03-15T00:54:41.794Z,87447.00
2023-03-15T00:55:41.726Z,87447.00
2023-03-15T01:08:41.184Z,87424.00
2023-03-15T01:11:41.072Z,87418.00
2023-03-15T01:12:41.063Z,87420.00
2023-03-15T01:13:41.011Z,87416.00
2023-03-15T01:14:40.948Z,87418.00
2023-03-15T01:15:40.897Z,87424.00
2023-03-15T01:16:40.855Z,87422.00
2023-03-15T01:17:40.827Z,87420.00
2023-03-15T01:18:40.800Z,87422.00
2023-03-15T01:19:40.759Z,87414.00
2023-03-15T01:20:40.689Z,87412.00
2023-03-15T01:21:40.648Z,87412.00
2023-03-15T01:22:40.738Z,87412.00
2023-03-15T01:23:40.587Z,87410.00
2023-03-15T01:24:40.555Z,87408.00
2023-03-15T01:25:40.497Z,87407.00
2023-03-15T01:26:40.463Z,87408.00
2023-03-15T01:27:40.441Z,87408.00
2023-03-15T01:28:40.399Z,87407.00
2023-03-15T01:29:40.362Z,87403.00
2023-03-15T01:30:40.329Z,87405.00
2023-03-15T01:31:40.310Z,87399.00
2023-03-15T01:32:40.321Z,87397.00
2023-03-15T01:33:40.210Z,87397.00
2023-03-15T01:34:40.174Z,87403.00
2023-03-15T01:35:40.157Z,87407.00
2023-03-15T01:36:40.102Z,87407.00
2023-03-15T01:37:40.197Z,87408.00
2023-03-15T01:38:40.018Z,87408.00
2023-03-15T01:39:39.968Z,87408.00
2023-03-15T01:40:39.949Z,87408.00
2023-03-15T01:41:39.902Z,87412.00
2023-03-15T01:42:39.866Z,87410.00
2023-03-15T01:43:39.840Z,87408.00
2023-03-15T01:44:39.831Z,87412.00
2023-03-15T01:45:39.755Z,87414.00
2023-03-15T01:46:39.775Z,87412.00
2023-03-15T01:47:39.674Z,87412.00
2023-03-15T01:48:39.648Z,87407.00
2023-03-15T01:49:39.631Z,87401.00
2023-03-15T01:50:39.609Z,87399.00
2023-03-15T01:51:39.554Z,87401.00
2023-03-15T01:52:39.549Z,87401.00
2023-03-15T01:53:39.483Z,87403.00
2023-03-15T01:54:39.451Z,87405.00
2023-03-15T01:55:39.411Z,87408.00
2023-03-15T01:56:39.382Z,87410.00
2023-03-15T01:57:39.340Z,87408.00
2023-03-15T01:58:39.321Z,87410.00
2023-03-15T01:59:39.280Z,87405.00
2023-03-15T02:00:39.258Z,87401.00
2023-03-15T02:01:39.217Z,87399.00
2023-03-15T02:02:39.210Z,87403.00
2023-03-15T02:03:39.133Z,87401.00
2023-03-15T02:04:39.111Z,87407.00
2023-03-15T02:05:39.071Z,87407.00
2023-03-15T02:06:39.038Z,87407.00
2023-03-15T02:07:38.994Z,87408.00
2023-03-15T02:08:38.990Z,87407.00
2023-03-15T02:09:38.922Z,87401.00
2023-03-15T02:10:38.935Z,87399.00
2023-03-15T02:11:38.860Z,87397.00
2023-03-15T02:12:38.815Z,87391.00
2023-03-15T02:13:38.780Z,87393.00
2023-03-15T02:14:38.743Z,87393.00
2023-03-15T02:15:38.734Z,87395.00
2023-03-15T02:16:38.801Z,87395.00
2023-03-15T02:17:38.637Z,87393.00
2023-03-15T02:18:38.602Z,87393.00
2023-03-15T02:19:38.565Z,87391.00
2023-03-15T02:20:38.523Z,87393.00
2023-03-15T02:21:38.485Z,87393.00
2023-03-15T02:22:38.454Z,87391.00
2023-03-15T02:23:38.409Z,87387.00
2023-03-15T02:24:38.381Z,87385.00
2023-03-15T02:25:38.319Z,87389.00
2023-03-15T02:26:38.280Z,87387.00
2023-03-15T02:27:38.340Z,87391.00
2023-03-15T02:28:38.200Z,87385.00
2023-03-15T02:29:38.159Z,87385.00
2023-03-15T02:30:38.136Z,87385.00
2023-03-15T02:31:38.288Z,87385.00
2023-03-15T02:32:38.066Z,87387.00
2023-03-15T02:33:38.035Z,87391.00
2023-03-15T02:34:37.980Z,87393.00
2023-03-15T02:35:37.991Z,87395.00
2023-03-15T02:36:37.914Z,87393.00
2023-03-15T02:37:37.905Z,87393.00
2023-03-15T02:38:37.854Z,87395.00
2023-03-15T02:39:37.842Z,87397.00
2023-03-15T02:40:37.770Z,87401.00
2023-03-15T02:41:37.741Z,87407.00
2023-03-15T02:42:37.700Z,87412.00
2023-03-15T02:43:37.694Z,87412.00
2023-03-15T02:44:37.668Z,87414.00
2023-03-15T02:45:37.684Z,87416.00
2023-03-15T02:46:37.603Z,87418.00
2023-03-15T02:47:37.570Z,87424.00
2023-03-15T02:48:37.510Z,87426.00
2023-03-15T02:49:37.522Z,87428.00
2023-03-15T02:50:37.436Z,87432.00
2023-03-15T02:51:37.406Z,87436.00
2023-03-15T02:52:37.369Z,87447.00
2023-03-15T02:53:37.337Z,87449.00
2023-03-15T02:54:37.302Z,87449.00
2023-03-15T02:55:37.287Z,87453.00
2023-03-15T02:56:37.212Z,87459.00
2023-03-15T02:57:37.179Z,87459.00
2023-03-15T02:58:37.161Z,87463.00
2023-03-15T02:59:37.115Z,87463.00
2023-03-15T03:00:37.073Z,87468.00
2023-03-15T03:01:37.125Z,87470.00
2023-03-15T03:02:37.010Z,87476.00
2023-03-15T03:03:36.958Z,87476.00
2023-03-15T03:04:36.920Z,87476.00
2023-03-15T03:05:36.890Z,87486.00
2023-03-15T03:06:36.875Z,87488.00
2023-03-15T03:07:36.823Z,87492.00
2023-03-15T03:08:36.780Z,87498.00
2023-03-15T03:09:36.741Z,87502.00
2023-03-15T03:10:36.703Z,87498.00
2023-03-15T03:11:36.775Z,87492.00
2023-03-15T03:12:36.628Z,87486.00
2023-03-15T03:13:36.587Z,87500.00
2023-03-15T03:14:36.557Z,87490.00
2023-03-15T03:15:36.520Z,87484.00
2023-03-15T03:16:36.503Z,87490.00
2023-03-15T03:17:36.451Z,87496.00
2023-03-15T03:18:36.409Z,87484.00
2023-03-15T03:19:36.370Z,87500.00
2023-03-15T03:20:36.328Z,87512.00
2023-03-15T03:21:36.292Z,87510.00
2023-03-15T03:22:36.266Z,87510.00
2023-03-15T03:23:36.225Z,87518.00
2023-03-15T03:24:36.191Z,87523.00
2023-03-15T03:25:36.163Z,87529.00
2023-03-15T03:26:36.128Z,87523.00
2023-03-15T03:27:36.899Z,87523.00
2023-03-15T03:28:36.038Z,87527.00
2023-03-15T03:29:35.995Z,87531.00
2023-03-15T03:30:36.027Z,87531.00
2023-03-15T03:31:35.926Z,87531.00
2023-03-15T03:32:35.952Z,87531.00
2023-03-15T03:33:35.884Z,87531.00
2023-03-15T03:34:35.810Z,87533.00
2023-03-15T03:35:35.830Z,87533.00
2023-03-15T03:36:35.743Z,87537.00
2023-03-15T03:37:35.710Z,87545.00
2023-03-15T03:38:35.671Z,87539.00
2023-03-15T03:39:35.625Z,87541.00
2023-03-15T03:40:35.575Z,87543.00
2023-03-15T03:41:35.539Z,87539.00
2023-03-15T03:42:35.509Z,87539.00
2023-03-15T03:43:35.476Z,87541.00
2023-03-15T03:44:35.433Z,87553.00
2023-03-15T03:45:35.400Z,87549.00
2023-03-15T03:46:35.368Z,87567.00
2023-03-15T03:47:35.338Z,87555.00
2023-03-15T03:48:35.298Z,87557.00
2023-03-15T03:49:35.271Z,87561.00
2023-03-15T03:50:35.236Z,87563.00
2023-03-15T03:51:35.215Z,87555.00
2023-03-15T03:52:35.178Z,87569.00
2023-03-15T03:53:35.138Z,87559.00
2023-03-15T03:54:35.096Z,87563.00
2023-03-15T03:55:35.078Z,87565.00
2023-03-15T03:56:35.018Z,87567.00
2023-03-15T03:57:34.987Z,87572.00
2023-03-15T03:58:34.956Z,87574.00
2023-03-15T03:59:34.937Z,87576.00
2023-03-15T04:00:34.889Z,87576.00
2023-03-15T04:01:34.855Z,87576.00
2023-03-15T04:02:34.850Z,87582.00
2023-03-15T04:03:34.782Z,87584.00
2023-03-15T04:04:34.794Z,87580.00
2023-03-15T04:05:34.713Z,87588.00
2023-03-15T04:06:34.665Z,87598.00
2023-03-15T04:07:34.633Z,87600.00
2023-03-15T04:08:34.608Z,87602.00
2023-03-15T04:09:34.557Z,87606.00
2023-03-15T04:10:34.527Z,87602.00
2023-03-15T04:11:34.481Z,87604.00
2023-03-15T04:12:34.483Z,87604.00
2023-03-15T04:13:34.402Z,87608.00
2023-03-15T04:14:34.358Z,87614.00
2023-03-15T04:15:34.317Z,87612.00
2023-03-15T04:16:34.280Z,87616.00
2023-03-15T04:17:34.264Z,87614.00
2023-03-15T04:18:34.215Z,87614.00
2023-03-15T04:19:34.182Z,87612.00
2023-03-15T04:20:34.148Z,87612.00
2023-03-15T04:21:34.099Z,87614.00
2023-03-15T04:22:34.062Z,87620.00
2023-03-15T04:23:34.067Z,87627.00
2023-03-15T04:24:34.008Z,87631.00
2023-03-15T04:25:33.969Z,87622.00
2023-03-15T04:26:33.936Z,87624.00
2023-03-15T04:27:33.943Z,87627.00
2023-03-15T04:28:33.866Z,87631.00
2023-03-15T04:29:33.926Z,87629.00
2023-03-15T04:30:33.810Z,87639.00
2023-03-15T04:31:33.839Z,87635.00
2023-03-15T04:32:33.752Z,87629.00
2023-03-15T04:33:33.716Z,87629.00
2023-03-15T04:34:33.673Z,87631.00
2023-03-15T04:35:33.690Z,87639.00
2023-03-15T04:36:33.602Z,87639.00
2023-03-15T04:37:33.569Z,87637.00
2023-03-15T04:38:33.542Z,87645.00
2023-03-15T04:39:33.506Z,87651.00
2023-03-15T04:40:33.494Z,87647.00
2023-03-15T04:41:33.438Z,87653.00
2023-03-15T04:42:33.408Z,87653.00
2023-03-15T04:43:33.462Z,87657.00
2023-03-15T04:44:33.426Z,87659.00
2023-03-15T04:45:33.311Z,87665.00
2023-03-15T04:46:33.295Z,87671.00
2023-03-15T04:47:33.229Z,87671.00
2023-03-15T04:48:33.191Z,87675.00
2023-03-15T04:49:33.260Z,87679.00
2023-03-15T04:50:33.924Z,87686.00
2023-03-15T04:51:33.137Z,87673.00
2023-03-15T04:52:33.112Z,87679.00
2023-03-15T04:53:33.209Z,87679.00
2023-03-15T04:54:32.967Z,87682.00
2023-03-15T04:55:32.940Z,87688.00
2023-03-15T04:56:32.901Z,87688.00
2023-03-15T04:57:32.865Z,87686.00
2023-03-15T04:58:32.834Z,87686.00
2023-03-15T04:59:32.807Z,87690.00
2023-03-15T05:00:32.776Z,87692.00
2023-03-15T05:01:32.722Z,87694.00
2023-03-15T05:02:32.697Z,87692.00
2023-03-15T05:03:32.703Z,87690.00
2023-03-15T05:04:32.658Z,87701.00
2023-03-15T05:05:32.592Z,87707.00
2023-03-15T05:06:32.548Z,87711.00
2023-03-15T05:07:32.533Z,87705.00
2023-03-15T05:08:32.482Z,87711.00
2023-03-15T05:09:32.444Z,87713.00
2023-03-15T05:10:32.417Z,87713.00
2023-03-15T05:11:32.386Z,87713.00
2023-03-15T05:12:32.349Z,87715.00
2023-03-15T05:13:32.328Z,87713.00
2023-03-15T05:14:32.286Z,87711.00
2023-03-15T05:15:32.269Z,87717.00
2023-03-15T05:16:32.267Z,87723.00
2023-03-15T05:17:32.198Z,87719.00
2023-03-15T05:18:32.153Z,87717.00
2023-03-15T05:19:32.121Z,87715.00
2023-03-15T05:20:32.094Z,87723.00
2023-03-15T05:21:32.062Z,87721.00
2023-03-15T05:22:32.054Z,87723.00
2023-03-15T05:23:32.003Z,87723.00
2023-03-15T05:24:31.965Z,87729.00
2023-03-15T05:25:31.943Z,87725.00
2023-03-15T05:26:31.948Z,87733.00
2023-03-15T05:27:31.875Z,87733.00
2023-03-15T05:28:31.843Z,87735.00
2023-03-15T05:29:31.813Z,87737.00
2023-03-15T05:30:31.757Z,87744.00
2023-03-15T05:31:31.745Z,87748.00
2023-03-15T07:35:27.183Z,87958.00
2023-03-15T07:36:27.994Z,87960.00
2023-03-15T07:37:27.119Z,87965.00
2023-03-15T07:38:27.081Z,87962.00
2023-03-15T07:39:26.978Z,87969.00
2023-03-15T07:40:26.946Z,87969.00
2023-03-15T07:41:26.867Z,87973.00
2023-03-15T07:42:26.801Z,87971.00
2023-03-15T07:43:26.757Z,87965.00
2023-03-15T07:44:26.685Z,87971.00
2023-03-15T07:45:26.643Z,87975.00
2023-03-15T07:46:26.593Z,87971.00
2023-03-15T07:47:26.509Z,87971.00
2023-03-15T07:48:26.472Z,87979.00
2023-03-15T07:49:26.419Z,87973.00
2023-03-15T07:50:26.522Z,87975.00
2023-03-15T07:51:26.346Z,87973.00
2023-03-15T07:52:26.340Z,87975.00
2023-03-15T07:53:26.273Z,87979.00
2023-03-15T07:55:26.208Z,87985.00
2023-03-15T07:56:26.173Z,87989.00
2023-03-15T07:57:28.720Z,87985.00
2023-03-15T07:58:27.001Z,87987.00
2023-03-15T07:59:26.043Z,87989.00
2023-03-15T08:00:26.120Z,87995.00
2023-03-15T08:01:25.991Z,87993.00
2023-03-15T08:02:25.990Z,87985.00
2023-03-15T08:03:25.904Z,88001.00
2023-03-15T08:04:25.849Z,87985.00
2023-03-15T08:05:28.460Z,87993.00
2023-03-15T08:06:25.792Z,87989.00
2023-03-15T08:07:25.826Z,87991.00
2023-03-15T08:08:25.709Z,87989.00
2023-03-15T08:09:25.649Z,87995.00
2023-03-15T08:10:25.649Z,87987.00
2023-03-15T08:11:25.583Z,87991.00
2023-03-15T08:12:25.525Z,87989.00
2023-03-15T08:13:25.502Z,87987.00
2023-03-15T08:14:25.453Z,87983.00
2023-03-15T08:15:25.407Z,87987.00
2023-03-15T08:16:25.428Z,87989.00
2023-03-15T08:17:25.325Z,87985.00
2023-03-15T08:18:25.295Z,87985.00
2023-03-15T08:19:25.278Z,87989.00
2023-03-15T08:20:25.938Z,87979.00
2023-03-15T08:21:25.164Z,87989.00
2023-03-15T08:22:25.169Z,87981.00
2023-03-15T08:23:25.071Z,87977.00
2023-03-15T08:24:25.016Z,88005.00
2023-03-15T08:25:24.990Z,87989.00
2023-03-15T08:26:24.917Z,87987.00
2023-03-15T08:27:24.863Z,87987.00
2023-03-15T08:28:24.844Z,87979.00
2023-03-15T08:29:24.787Z,87987.00
2023-03-15T08:30:24.721Z,87989.00
2023-03-15T08:31:24.709Z,87987.00
2023-03-15T08:32:24.684Z,87989.00
2023-03-15T08:33:24.615Z,87991.00
2023-03-15T08:34:24.564Z,87993.00
2023-03-15T08:35:24.566Z,87993.00
2023-03-15T08:36:24.489Z,87995.00
2023-03-15T08:37:24.389Z,87993.00
2023-03-15T08:38:24.358Z,87991.00
2023-03-15T08:39:24.336Z,87991.00
2023-03-15T08:40:24.280Z,87991.00
2023-03-15T08:41:24.196Z,87995.00
2023-03-15T08:42:24.157Z,87997.00
2023-03-15T08:43:26.005Z,87991.00
2023-03-15T08:44:24.061Z,87991.00
2023-03-15T08:45:24.022Z,88003.00
2023-03-15T08:46:23.986Z,87991.00
2023-03-15T08:47:23.903Z,88001.00
2023-03-15T08:48:23.915Z,87995.00
2023-03-15T08:49:23.803Z,87993.00
2023-03-15T08:50:23.766Z,87993.00
2023-03-15T08:51:23.688Z,87995.00
2023-03-15T08:52:23.703Z,87991.00
2023-03-15T08:53:24.561Z,87991.00
2023-03-15T08:54:23.548Z,87999.00
2023-03-15T08:55:23.522Z,87993.00
2023-03-15T08:56:23.463Z,87979.00
2023-03-15T08:57:23.409Z,87993.00
2023-03-15T08:58:23.362Z,87995.00
2023-03-15T08:59:31.907Z,87983.00
2023-03-15T09:00:24.456Z,87985.00
2023-03-15T09:01:23.400Z,87993.00
2023-03-15T09:02:23.492Z,87987.00
2023-03-15T09:03:23.341Z,87987.00
2023-03-15T09:04:23.332Z,87989.00
2023-03-15T09:05:23.241Z,87989.00
2023-03-15T09:06:23.228Z,88007.00
2023-03-15T09:07:23.186Z,87991.00
2023-03-15T09:08:23.163Z,87987.00
2023-03-15T09:09:23.139Z,87981.00
2023-03-15T09:10:23.096Z,88005.00
2023-03-15T09:11:23.050Z,87989.00
2023-03-15T09:12:23.037Z,87987.00
2023-03-15T09:13:22.986Z,87985.00
2023-03-15T09:14:22.948Z,87989.00
2023-03-15T09:15:22.943Z,87985.00
2023-03-15T09:16:22.944Z,87995.00
2023-03-15T09:17:22.876Z,88007.00
2023-03-15T09:18:22.868Z,87985.00
2023-03-15T09:19:22.808Z,87995.00
2023-03-15T09:20:22.827Z,88009.00
2023-03-15T09:21:22.892Z,88005.00
2023-03-15T09:22:37.794Z,87989.00
2023-03-15T09:23:23.685Z,87997.00
2023-03-15T09:24:22.647Z,87989.00
2023-03-15T09:25:22.630Z,87991.00
2023-03-15T09:26:22.598Z,87987.00
2023-03-15T09:27:22.536Z,87991.00
2023-03-15T09:28:22.515Z,87989.00
2023-03-15T09:29:22.441Z,87993.00
2023-03-15T09:30:22.393Z,87989.00
2023-03-15T09:31:22.427Z,87993.00
2023-03-15T09:32:22.371Z,87991.00
2023-03-15T09:33:22.253Z,88005.00
2023-03-15T09:34:23.552Z,87997.00
2023-03-15T09:35:22.162Z,88001.00
2023-03-15T09:36:22.097Z,88001.00
2023-03-15T09:37:22.111Z,88003.00
2023-03-15T09:38:22.097Z,88001.00
2023-03-15T09:39:21.961Z,88005.00
2023-03-15T09:40:21.947Z,88009.00
2023-03-15T09:41:21.881Z,88009.00
2023-03-15T09:42:21.830Z,88007.00
2023-03-15T09:43:21.774Z,88009.00
2023-03-15T09:44:21.740Z,88007.00
2023-03-15T09:46:21.833Z,88005.00
2023-03-15T12:34:14.520Z,87977.00
2023-03-15T12:35:15.580Z,87973.00
2023-03-15T12:36:14.285Z,87969.00
2023-03-15T12:37:14.255Z,87977.00
2023-03-15T12:38:14.183Z,87981.00
2023-03-15T12:39:14.140Z,87971.00
2023-03-15T12:40:14.130Z,87973.00
2023-03-15T12:41:14.029Z,87971.00
2023-03-15T12:42:13.987Z,87969.00
2023-03-15T12:43:13.938Z,87971.00
2023-03-15T12:44:13.885Z,87973.00
2023-03-15T12:45:13.846Z,87967.00
2023-03-15T12:46:13.838Z,87973.00
2023-03-15T12:47:13.751Z,87962.00
2023-03-15T12:48:13.672Z,87971.00
2023-03-15T12:49:13.635Z,87965.00
2023-03-15T12:50:13.617Z,87975.00
2023-03-15T12:51:13.543Z,87973.00
2023-03-15T12:52:13.501Z,87969.00
2023-03-15T12:53:13.444Z,87965.00
2023-03-15T12:54:13.373Z,87969.00
2023-03-15T12:55:13.343Z,87971.00
2023-03-15T12:56:13.281Z,87971.00
2023-03-15T12:57:13.251Z,87962.00
2023-03-15T12:58:13.270Z,87969.00
2023-03-15T12:59:13.145Z,87965.00
2023-03-15T13:00:13.264Z,87964.00
2023-03-15T13:01:13.140Z,87973.00
2023-03-15T13:02:13.065Z,87973.00
2023-03-15T13:03:12.970Z,87967.00
2023-03-15T13:04:12.916Z,87964.00
2023-03-15T13:05:13.058Z,87971.00
2023-03-15T13:06:12.848Z,87960.00
2023-03-15T13:07:12.768Z,87969.00
2023-03-15T13:08:12.786Z,87969.00
2023-03-15T13:09:12.692Z,87973.00
2023-03-15T13:10:12.718Z,87967.00
2023-03-15T13:11:12.612Z,87969.00
2023-03-15T13:12:12.556Z,87971.00
2023-03-15T13:13:12.527Z,87977.00
2023-03-15T13:14:12.440Z,87979.00
2023-03-15T13:15:12.425Z,87977.00
2023-03-15T13:16:12.390Z,87977.00
2023-03-15T13:17:12.326Z,87977.00
2023-03-15T13:18:12.294Z,87973.00
2023-03-15T13:19:12.243Z,87969.00
2023-03-15T13:20:12.240Z,87973.00
2023-03-15T13:21:12.162Z,87985.00
2023-03-15T13:30:11.840Z,87981.00
2023-03-15T13:51:10.729Z,87999.00
2023-03-15T13:52:10.689Z,87991.00
2023-03-15T13:53:10.619Z,87997.00
2023-03-15T13:54:10.597Z,87993.00
2023-03-15T13:55:10.524Z,88001.00
2023-03-15T13:56:10.492Z,87993.00
2023-03-15T13:57:10.426Z,88001.00
2023-03-15T13:58:10.390Z,87997.00
2023-03-15T13:59:10.358Z,87991.00
2023-03-15T14:00:10.362Z,87997.00
2023-03-15T14:01:10.254Z,87989.00
2023-03-15T14:02:10.395Z,87995.00
2023-03-15T14:03:10.317Z,87993.00
2023-03-15T14:04:10.134Z,88003.00
2023-03-15T14:05:10.057Z,87997.00
2023-03-15T14:06:10.082Z,88005.00
2023-03-15T14:07:09.996Z,87997.00
2023-03-15T14:08:09.926Z,88003.00
2023-03-15T14:09:09.902Z,88003.00
2023-03-15T14:10:09.988Z,88007.00
2023-03-15T14:11:09.804Z,88005.00
2023-03-15T14:12:09.765Z,88001.00
2023-03-15T14:13:09.731Z,87999.00
2023-03-15T14:14:09.662Z,87997.00
2023-03-15T14:15:09.649Z,88009.00
2023-03-15T14:16:09.636Z,88005.00
2023-03-15T14:17:09.591Z,88007.00
2023-03-15T14:18:09.505Z,88017.00
2023-03-15T14:19:09.475Z,88019.00
2023-03-15T14:20:09.566Z,88017.00
2023-03-15T14:21:09.408Z,88020.00
2023-03-15T14:23:09.344Z,88015.00
2023-03-15T14:24:09.513Z,88009.00
2023-03-15T14:25:09.179Z,88011.00
2023-03-15T14:26:09.122Z,88017.00
2023-03-15T14:27:09.107Z,88015.00
2023-03-15T14:28:09.044Z,88015.00
2023-03-15T14:29:09.117Z,88015.00
2023-03-15T14:30:09.043Z,88017.00
2023-03-15T14:31:08.951Z,88015.00
2023-03-15T14:32:08.844Z,88017.00
2023-03-15T14:33:08.964Z,88013.00
2023-03-15T14:34:08.751Z,88009.00
2023-03-15T14:35:08.702Z,88013.00
2023-03-15T14:36:10.022Z,88011.00
2023-03-15T14:37:08.588Z,88017.00
2023-03-15T14:38:08.553Z,88013.00
2023-03-15T14:39:08.520Z,88013.00
2023-03-15T14:40:08.514Z,88022.00
2023-03-15T14:41:08.417Z,88019.00
2023-03-15T14:42:08.359Z,88022.00
2023-03-15T14:43:09.168Z,88022.00
2023-03-15T14:44:08.286Z,88019.00
2023-03-15T14:45:08.222Z,88020.00
2023-03-15T14:46:08.233Z,88011.00
2023-03-15T14:47:08.158Z,88013.00
2023-03-15T14:48:08.098Z,88017.00
2023-03-15T14:49:08.059Z,88024.00
2023-03-15T14:50:08.151Z,88024.00
2023-03-15T14:51:07.958Z,88024.00
2023-03-15T14:52:07.914Z,88030.00
2023-03-15T14:53:07.856Z,88028.00
2023-03-15T14:54:07.788Z,88020.00
2023-03-15T14:55:07.755Z,88026.00
2023-03-15T14:56:07.688Z,88028.00
2023-03-15T14:57:07.666Z,88036.00
2023-03-15T14:58:07.593Z,88032.00
2023-03-15T14:59:07.528Z,88032.00
2023-03-15T15:00:07.505Z,88028.00
2023-03-15T15:01:07.482Z,88030.00
2023-03-15T15:02:07.538Z,88032.00
2023-03-15T15:03:07.326Z,88026.00
2023-03-15T15:04:07.270Z,88032.00
2023-03-15T15:05:07.225Z,88036.00
2023-03-15T15:06:07.170Z,88038.00
2023-03-15T15:07:07.132Z,88032.00
2023-03-15T15:08:07.086Z,88034.00
2023-03-15T15:09:07.092Z,88040.00
2023-03-15T15:10:07.087Z,88040.00
2023-03-15T15:11:07.130Z,88040.00
2023-03-15T15:12:06.867Z,88052.00
2023-03-15T15:13:07.561Z,88056.00
2023-03-15T15:14:06.765Z,88050.00
2023-03-15T15:15:06.737Z,88044.00
2023-03-15T15:16:06.738Z,88048.00
2023-03-15T15:17:06.643Z,88046.00
2023-03-15T15:18:06.572Z,88042.00
2023-03-15T15:19:06.531Z,88040.00
2023-03-15T15:20:06.465Z,88038.00
2023-03-15T15:21:06.438Z,88046.00
2023-03-15T15:22:06.429Z,88042.00
2023-03-15T15:23:06.304Z,88036.00
2023-03-15T15:24:06.356Z,88044.00
2023-03-15T15:25:06.200Z,88042.00
2023-03-15T15:26:06.166Z,88044.00
2023-03-15T15:27:06.138Z,88042.00
2023-03-15T15:28:06.036Z,88042.00
2023-03-15T15:29:05.999Z,88046.00
2023-03-15T15:30:05.952Z,88052.00
2023-03-15T15:31:05.917Z,88046.00
2023-03-15T15:32:05.962Z,88044.00
2023-03-15T15:33:05.850Z,88040.00
2023-03-15T15:34:05.742Z,88042.00
2023-03-15T15:35:05.669Z,88054.00
2023-03-15T15:36:05.798Z,88054.00
2023-03-15T15:37:05.577Z,88052.00
2023-03-15T15:38:05.540Z,88056.00
2023-03-15T15:39:06.931Z,88056.00
2023-03-15T15:40:05.405Z,88056.00
2023-03-15T15:41:05.373Z,88054.00
2023-03-15T15:42:05.310Z,88056.00
2023-03-15T15:43:05.281Z,88058.00
2023-03-15T15:44:05.208Z,88062.00
2023-03-15T15:45:05.174Z,88056.00
2023-03-15T15:46:05.138Z,88058.00
2023-03-15T15:47:05.078Z,88056.00
2023-03-15T15:48:05.014Z,88058.00
2023-03-15T15:49:04.970Z,88058.00
2023-03-15T15:50:04.911Z,88064.00
2023-03-15T15:51:04.874Z,88056.00
2023-03-15T15:52:04.818Z,88064.00
2023-03-15T15:53:04.841Z,88069.00
2023-03-15T15:54:04.952Z,88066.00
2023-03-15T15:55:04.674Z,88067.00
2023-03-15T15:56:04.616Z,88064.00
2023-03-15T15:57:04.980Z,88060.00
2023-03-15T15:58:05.584Z,88069.00
2023-03-15T15:59:04.660Z,88071.00
2023-03-15T16:00:04.430Z,88067.00
2023-03-15T16:01:04.386Z,88071.00
2023-03-15T16:02:04.434Z,88069.00
2023-03-15T16:03:04.372Z,88066.00
2023-03-15T16:04:04.233Z,88064.00
2023-03-15T16:05:04.184Z,88079.00
2023-03-15T16:06:04.137Z,88071.00
2023-03-15T16:07:04.148Z,88066.00
2023-03-15T16:08:04.040Z,88071.00
2023-03-15T16:09:03.978Z,88071.00
2023-03-15T16:10:03.937Z,88071.00
2023-03-15T16:11:03.882Z,88069.00
2023-03-15T16:12:03.846Z,88067.00
2023-03-15T16:13:03.786Z,88071.00
2023-03-15T16:14:03.747Z,88077.00
2023-03-15T16:15:03.693Z,88081.00
2023-03-15T16:16:03.710Z,88081.00
2023-03-15T16:17:03.612Z,88081.00
2023-03-15T16:18:03.562Z,88085.00
2023-03-15T16:19:03.525Z,88091.00
2023-03-15T16:20:03.464Z,88085.00
2023-03-15T16:21:03.423Z,88085.00
2023-03-15T16:22:03.378Z,88095.00
2023-03-15T16:23:03.327Z,88087.00
2023-03-15T16:24:03.290Z,88087.00
2023-03-15T16:25:03.226Z,88087.00
2023-03-15T16:26:03.190Z,88079.00
2023-03-15T16:27:03.141Z,88093.00
2023-03-15T16:28:03.131Z,88093.00
2023-03-15T16:29:03.107Z,88095.00
2023-03-15T16:30:03.022Z,88095.00
2023-03-15T16:31:03.008Z,88105.00
2023-03-15T16:32:16.447Z,88103.00
2023-03-15T16:33:03.923Z,88101.00
2023-03-15T16:34:02.867Z,88097.00
2023-03-15T16:35:02.810Z,88097.00
2023-03-15T16:36:02.838Z,88099.00
2023-03-15T16:37:02.729Z,88099.00
2023-03-15T16:38:02.684Z,88099.00
2023-03-15T16:39:02.633Z,88109.00
2023-03-15T16:40:02.588Z,88111.00
2023-03-15T16:41:02.543Z,88105.00
2023-03-15T16:42:02.501Z,88111.00
2023-03-15T16:43:02.454Z,88109.00
2023-03-15T16:44:02.441Z,88111.00
2023-03-15T16:45:02.388Z,88117.00
2023-03-15T16:46:02.333Z,88115.00
2023-03-15T16:47:02.291Z,88117.00
2023-03-15T16:48:02.236Z,88121.00
2023-03-15T16:49:02.215Z,88128.00
2023-03-15T16:50:02.191Z,88132.00
2023-03-15T16:51:02.107Z,88124.00
2023-03-15T16:52:02.062Z,88128.00
2023-03-15T16:53:02.036Z,88132.00
2023-03-15T16:54:14.990Z,88130.00
2023-03-15T16:56:01.892Z,88130.00
2023-03-15T16:57:01.846Z,88136.00
2023-03-15T16:58:01.819Z,88128.00
2023-03-15T16:59:01.775Z,88134.00
2023-03-15T17:00:03.933Z,88130.00
2023-03-15T19:39:55.410Z,88255.00
2023-03-15T19:40:55.376Z,88253.00
2023-03-15T19:41:55.344Z,88253.00
2023-03-15T19:42:55.330Z,88253.00
2023-03-15T19:43:55.277Z,88253.00
2023-03-15T19:44:55.254Z,88251.00
2023-03-15T19:45:55.254Z,88251.00
2023-03-15T19:46:55.151Z,88251.00
2023-03-15T19:47:55.117Z,88251.00
2023-03-15T19:48:55.086Z,88251.00
2023-03-15T19:49:55.057Z,88253.00
2023-03-15T19:50:55.015Z,88249.00
2023-03-15T19:51:54.988Z,88245.00
2023-03-15T19:52:54.939Z,88245.00
2023-03-15T19:53:54.958Z,88245.00
2023-03-15T19:54:54.883Z,88249.00
2023-03-15T19:55:54.888Z,88247.00
2023-03-15T19:56:54.762Z,88249.00
2023-03-15T19:57:54.719Z,88247.00
2023-03-15T19:58:54.688Z,88247.00
2023-03-15T19:59:54.628Z,88245.00
2023-03-15T20:00:54.663Z,88245.00
2023-03-15T20:01:54.711Z,88243.00
2023-03-15T20:02:54.501Z,88245.00
2023-03-15T20:03:54.527Z,88243.00
2023-03-15T20:04:54.435Z,88243.00
2023-03-15T20:05:54.395Z,88245.00
2023-03-15T20:06:54.368Z,88247.00